createdAt,value
2023-04-16T00:01:11.557Z,12.01
2023-04-16T00:03:40.275Z,12.05
2023-04-16T00:06:09.703Z,12.11
2023-04-16T00:08:38.455Z,12.14
2023-04-16T00:11:07.395Z,12.18
2023-04-16T00:13:35.816Z,12.22
2023-04-16T00:16:04.341Z,12.26
2023-04-16T00:18:34.269Z,12.28
2023-04-16T00:21:02.723Z,12.31
2023-04-16T00:23:31.695Z,12.33
2023-04-16T00:26:00.418Z,12.35
2023-04-16T00:28:29.135Z,12.36
2023-04-16T00:30:57.736Z,12.35
2023-04-16T00:33:26.949Z,12.34
2023-04-16T00:35:57.176Z,12.35
2023-04-16T00:38:30.048Z,12.33
2023-04-16T00:40:58.883Z,12.32
2023-04-16T00:43:28.325Z,12.29
2023-04-16T00:45:58.610Z,12.27
2023-04-16T00:48:28.391Z,12.25
2023-04-16T00:50:58.824Z,12.18
2023-04-16T00:53:27.420Z,12.13
2023-04-16T00:55:57.261Z,12.06
2023-04-16T00:58:26.652Z,11.97
2023-04-16T01:00:55.039Z,11.88
2023-04-16T01:03:23.669Z,11.83
2023-04-16T01:05:53.364Z,11.76
2023-04-16T01:08:24.073Z,11.69
2023-04-16T01:10:52.469Z,11.63
2023-04-16T01:13:20.908Z,11.57
2023-04-16T01:15:49.334Z,11.51
2023-04-16T01:18:18.676Z,11.45
2023-04-16T01:20:49.476Z,11.41
2023-04-16T01:23:18.756Z,11.37
2023-04-16T01:25:47.212Z,11.33
2023-04-16T01:28:15.826Z,11.27
2023-04-16T01:30:44.431Z,11.22
2023-04-16T01:33:15.487Z,11.19
2023-04-16T01:35:43.930Z,11.16
2023-04-16T01:38:13.774Z,11.11
2023-04-16T01:40:42.159Z,11.09
2023-04-16T01:43:10.548Z,11.05
2023-04-16T01:45:39.017Z,11.09
2023-04-16T01:48:08.439Z,11.12
2023-04-16T01:50:36.972Z,11.14
2023-04-16T01:53:05.394Z,11.18
2023-04-16T01:55:35.868Z,11.23
2023-04-16T01:58:04.366Z,11.30
2023-04-16T02:00:32.881Z,11.33
2023-04-16T02:03:01.712Z,11.36
2023-04-16T02:05:30.311Z,11.37
2023-04-16T02:07:58.764Z,11.35
2023-04-16T02:10:27.229Z,11.32
2023-04-16T02:12:57.104Z,11.26
2023-04-16T02:15:25.678Z,11.22
2023-04-16T02:17:56.948Z,11.18
2023-04-16T02:20:25.709Z,11.13
2023-04-16T02:22:54.154Z,11.10
2023-04-16T02:25:23.188Z,11.06
2023-04-16T02:27:51.552Z,11.02
2023-04-16T02:30:22.073Z,10.99
2023-04-16T02:32:50.904Z,10.97
2023-04-16T02:35:19.549Z,10.95
2023-04-16T02:37:47.980Z,10.96
2023-04-16T02:40:17.115Z,10.98
2023-04-16T02:42:45.509Z,11.02
2023-04-16T02:45:16.574Z,11.09
2023-04-16T02:47:46.426Z,11.14
2023-04-16T02:50:15.173Z,11.21
2023-04-16T02:52:43.916Z,11.26
2023-04-16T02:55:13.388Z,11.35
2023-04-16T02:57:42.686Z,11.40
2023-04-16T03:00:12.901Z,11.45
2023-04-16T03:02:42.580Z,11.49
2023-04-16T03:05:13.197Z,11.52
2023-04-16T03:07:41.861Z,11.54
2023-04-16T03:10:12.132Z,11.55
2023-04-16T03:12:40.639Z,11.55
2023-04-16T03:15:10.570Z,11.55
2023-04-16T03:17:39.233Z,11.57
2023-04-16T03:20:10.617Z,11.54
2023-04-16T03:22:40.583Z,11.56
2023-04-16T03:25:10.320Z,11.55
2023-04-16T03:27:39.769Z,11.57
2023-04-16T03:30:10.263Z,11.59
2023-04-16T03:32:38.984Z,11.62
2023-04-16T03:35:09.095Z,11.65
2023-04-16T03:37:39.000Z,11.70
2023-04-16T03:40:09.416Z,11.74
2023-04-16T03:42:37.853Z,11.80
2023-04-16T03:45:09.539Z,11.86
2023-04-16T03:47:38.061Z,11.93
2023-04-16T03:50:07.685Z,11.98
2023-04-16T03:52:36.360Z,12.06
2023-04-16T03:55:07.872Z,12.10
2023-04-16T03:57:36.285Z,12.14
2023-04-16T04:00:05.453Z,12.18
2023-04-16T04:02:33.896Z,12.22
2023-04-16T04:05:02.564Z,12.25
2023-04-16T04:07:31.191Z,12.30
2023-04-16T04:10:00.024Z,12.35
2023-04-16T04:12:29.888Z,12.38
2023-04-16T04:14:58.541Z,12.42
2023-04-16T04:17:26.869Z,12.46
2023-04-16T04:22:28.861Z,12.54
2023-04-16T04:24:57.240Z,12.60
2023-04-16T04:27:25.713Z,12.62
2023-04-16T04:29:55.549Z,12.66
2023-04-16T04:32:24.011Z,12.68
2023-04-16T04:34:52.772Z,12.73
2023-04-16T04:37:22.035Z,12.77
2023-04-16T04:39:50.450Z,12.81
2023-04-16T04:42:19.229Z,12.85
2023-04-16T04:44:47.804Z,12.87
2023-04-16T04:47:17.728Z,12.92
2023-04-16T04:49:46.108Z,12.95
2023-04-16T04:52:15.134Z,12.98
2023-04-16T04:54:43.573Z,13.01
2023-04-16T04:57:12.255Z,13.03
2023-04-16T04:59:40.711Z,13.06
2023-04-16T05:02:09.316Z,13.10
2023-04-16T05:04:39.728Z,13.13
2023-04-16T05:07:08.294Z,13.18
2023-04-16T05:09:36.873Z,13.21
2023-04-16T05:12:05.977Z,13.26
2023-04-16T05:14:34.966Z,13.32
2023-04-16T05:17:03.601Z,13.36
2023-04-16T05:19:32.186Z,13.40
2023-04-16T05:22:02.319Z,13.43
2023-04-16T05:24:30.917Z,13.46
2023-04-16T05:26:59.374Z,13.51
2023-04-16T05:29:28.275Z,13.54
2023-04-16T05:31:57.018Z,13.57
2023-04-16T05:34:25.583Z,13.61
2023-04-16T05:36:53.868Z,13.63
2023-04-16T05:39:23.879Z,13.65
2023-04-16T05:41:52.424Z,13.69
2023-04-16T05:44:20.928Z,13.71
2023-04-16T05:46:49.346Z,13.75
2023-04-16T05:49:20.026Z,13.80
2023-04-16T05:51:50.627Z,13.85
2023-04-16T05:54:19.370Z,13.89
2023-04-16T05:56:49.192Z,13.95
2023-04-16T05:59:17.607Z,13.99
2023-04-16T06:01:46.396Z,14.05
2023-04-16T06:04:15.094Z,14.10
2023-04-16T06:06:43.632Z,14.18
2023-04-16T06:09:12.323Z,14.22
2023-04-16T06:11:40.877Z,14.27
2023-04-16T06:14:10.635Z,14.31
2023-04-16T06:16:39.122Z,14.37
2023-04-16T06:19:07.828Z,14.45
2023-04-16T06:21:38.105Z,14.53
2023-04-16T06:24:07.307Z,14.63
2023-04-16T06:26:35.726Z,14.71
2023-04-16T06:29:04.611Z,14.83
2023-04-16T06:31:34.661Z,14.96
2023-04-16T06:34:03.359Z,15.06
2023-04-16T06:36:31.896Z,15.18
2023-04-16T06:39:00.558Z,15.29
2023-04-16T06:41:28.925Z,15.40
2023-04-16T06:43:57.426Z,15.49
2023-04-16T06:46:25.930Z,15.59
2023-04-16T06:48:56.693Z,15.72
2023-04-16T06:51:26.526Z,15.82
2023-04-16T06:53:54.935Z,15.92
2023-04-16T06:56:23.369Z,15.94
2023-04-16T06:58:52.170Z,15.97
2023-04-16T07:01:20.845Z,16.02
2023-04-16T07:03:49.783Z,16.03
2023-04-16T07:06:19.720Z,16.04
2023-04-16T07:08:48.234Z,16.10
2023-04-16T07:11:17.255Z,16.20
2023-04-16T07:13:45.677Z,16.31
2023-04-16T07:16:14.172Z,16.42
2023-04-16T07:18:42.617Z,16.51
2023-04-16T07:21:11.457Z,16.62
2023-04-16T07:23:41.257Z,16.72
2023-04-16T07:26:09.727Z,16.86
2023-04-16T07:28:38.167Z,16.98
2023-04-16T07:31:06.789Z,17.08
2023-04-16T07:33:35.674Z,17.05
2023-04-16T07:36:04.023Z,17.09
2023-04-16T07:38:32.505Z,17.14
2023-04-16T07:41:02.425Z,17.24
2023-04-16T07:43:30.851Z,17.35
2023-04-16T07:45:59.204Z,17.45
2023-04-16T07:48:27.945Z,17.58
2023-04-16T07:50:56.579Z,17.69
2023-04-16T07:53:25.358Z,17.79
2023-04-16T07:55:53.737Z,17.80
2023-04-16T07:58:23.628Z,17.80
2023-04-16T08:00:52.502Z,17.80
2023-04-16T08:03:21.348Z,17.83
2023-04-16T08:05:50.146Z,17.80
2023-04-16T08:08:18.609Z,17.78
2023-04-16T08:10:47.075Z,17.75
2023-04-16T08:13:15.952Z,17.74
2023-04-16T08:15:46.097Z,17.76
2023-04-16T08:18:15.741Z,17.83
2023-04-16T08:20:44.369Z,17.94
2023-04-16T08:23:12.800Z,18.06
2023-04-16T08:25:41.517Z,18.16
2023-04-16T08:28:10.365Z,18.22
2023-04-16T08:30:38.930Z,18.24
2023-04-16T08:33:08.859Z,18.21
2023-04-16T08:35:37.329Z,18.15
2023-04-16T08:38:07.491Z,18.12
2023-04-16T08:40:40.115Z,18.09
2023-04-16T08:43:14.098Z,18.07
2023-04-16T08:45:43.859Z,18.06
2023-04-16T08:48:14.397Z,18.04
2023-04-16T08:50:43.408Z,18.00
2023-04-16T08:53:19.499Z,17.94
2023-04-16T08:55:50.477Z,17.93
2023-04-16T08:58:22.309Z,17.95
2023-04-16T09:00:51.507Z,17.99
2023-04-16T09:03:22.070Z,18.05
2023-04-16T09:05:51.640Z,18.15
2023-04-16T09:08:21.333Z,18.23
2023-04-16T09:10:50.575Z,18.28
2023-04-16T09:13:20.566Z,18.35
2023-04-16T09:15:52.194Z,18.45
2023-04-16T09:18:22.331Z,18.56
2023-04-16T09:20:52.292Z,18.61
2023-04-16T09:23:20.829Z,18.62
2023-04-16T09:25:49.644Z,18.69
2023-04-16T09:28:43.157Z,18.74
2023-04-16T09:31:14.099Z,18.84
2023-04-16T09:33:45.144Z,18.92
2023-04-16T09:36:15.263Z,18.96
2023-04-16T09:38:51.379Z,18.98
2023-04-16T09:41:20.877Z,19.01
2023-04-16T09:43:58.053Z,18.99
2023-04-16T09:46:31.153Z,18.99
2023-04-16T09:49:09.951Z,18.91
2023-04-16T09:51:39.437Z,18.89
2023-04-16T09:54:08.048Z,18.90
2023-04-16T09:56:42.557Z,18.86
2023-04-16T09:59:18.121Z,18.89
2023-04-16T10:01:49.475Z,18.95
2023-04-16T10:04:19.843Z,18.96
2023-04-16T10:07:05.274Z,19.08
2023-04-16T10:09:34.313Z,19.14
2023-04-16T10:12:03.023Z,19.21
2023-04-16T10:14:31.498Z,19.32
2023-04-16T10:17:00.779Z,19.42
2023-04-16T10:19:31.848Z,19.54
2023-04-16T10:22:00.530Z,19.72
2023-04-16T10:24:31.505Z,19.91
2023-04-16T10:27:00.992Z,20.03
2023-04-16T10:29:31.359Z,20.02
2023-04-16T10:32:01.193Z,20.10
2023-04-16T10:34:32.603Z,20.29
2023-04-16T10:37:01.023Z,20.52
2023-04-16T10:39:30.390Z,20.69
2023-04-16T10:42:10.190Z,20.85
2023-04-16T10:44:38.799Z,21.04
2023-04-16T10:47:13.068Z,21.13
2023-04-16T10:49:43.870Z,21.20
2023-04-16T10:52:14.984Z,21.18
2023-04-16T10:54:43.809Z,21.07
2023-04-16T10:57:18.790Z,20.99
2023-04-16T10:59:47.527Z,20.94
2023-04-16T11:02:17.896Z,20.91
2023-04-16T11:04:49.993Z,20.89
2023-04-16T11:07:22.279Z,20.87
2023-04-16T11:09:57.040Z,20.79
2023-04-16T11:12:27.715Z,20.70
2023-04-16T11:15:00.555Z,20.66
2023-04-16T11:17:34.034Z,20.77
2023-04-16T11:20:05.349Z,21.02
2023-04-16T11:22:49.598Z,21.29
2023-04-16T11:25:22.339Z,21.46
2023-04-16T11:27:51.313Z,21.77
2023-04-16T11:30:28.970Z,22.26
2023-04-16T11:32:57.527Z,23.00
2023-04-16T11:35:27.554Z,23.81
2023-04-16T11:37:58.744Z,24.67
2023-04-16T11:40:30.986Z,25.35
2023-04-16T11:43:04.450Z,25.70
2023-04-16T11:45:33.069Z,25.66
2023-04-16T11:48:01.571Z,25.41
2023-04-16T11:50:31.770Z,25.00
2023-04-16T11:53:06.780Z,24.50
2023-04-16T11:55:45.648Z,24.03
2023-04-16T11:58:15.958Z,23.72
2023-04-16T12:00:45.530Z,23.35
2023-04-16T12:03:14.127Z,23.11
2023-04-16T12:05:44.453Z,22.99
2023-04-16T12:08:13.905Z,22.92
2023-04-16T12:10:56.288Z,22.93
2023-04-16T12:13:24.680Z,22.97
2023-04-16T12:15:54.930Z,22.94
2023-04-16T12:18:27.052Z,22.90
2023-04-16T12:20:57.004Z,22.88
2023-04-16T12:23:27.674Z,22.87
2023-04-16T12:25:57.209Z,22.82
2023-04-16T12:28:31.726Z,22.72
2023-04-16T12:31:00.682Z,22.64
2023-04-16T12:33:29.499Z,22.62
2023-04-16T12:35:59.299Z,22.59
2023-04-16T12:38:29.211Z,22.62
2023-04-16T12:40:58.418Z,22.63
2023-04-16T12:43:27.723Z,22.74
2023-04-16T12:45:56.812Z,22.97
2023-04-16T12:48:25.285Z,23.20
2023-04-16T12:50:55.946Z,23.30
2023-04-16T12:53:25.771Z,23.27
2023-04-16T12:55:54.599Z,23.11
2023-04-16T12:58:23.066Z,22.95
2023-04-16T13:00:51.538Z,22.78
2023-04-16T13:03:21.014Z,22.59
2023-04-16T13:05:49.748Z,22.36
2023-04-16T13:08:18.175Z,22.15
2023-04-16T13:10:48.339Z,21.98
2023-04-16T13:13:16.789Z,21.82
2023-04-16T13:15:45.409Z,21.71
2023-04-16T13:18:13.969Z,21.64
2023-04-16T13:20:42.452Z,21.55
2023-04-16T13:23:11.817Z,21.55
2023-04-16T13:25:40.173Z,21.50
2023-04-16T13:28:09.940Z,21.46
2023-04-16T13:30:38.797Z,21.43
2023-04-16T13:33:07.473Z,21.46
2023-04-16T13:35:36.658Z,21.42
2023-04-16T13:38:06.083Z,21.45
2023-04-16T13:40:35.216Z,21.41
2023-04-16T13:43:05.008Z,21.36
2023-04-16T13:45:35.812Z,21.38
2023-04-16T13:48:05.224Z,21.44
2023-04-16T13:50:34.029Z,21.48
2023-04-16T13:53:02.826Z,21.49
2023-04-16T13:55:32.834Z,21.54
2023-04-16T13:58:01.663Z,21.65
2023-04-16T14:00:30.885Z,21.71
2023-04-16T14:03:01.219Z,21.68
2023-04-16T14:05:29.837Z,21.62
2023-04-16T14:07:58.577Z,21.52
2023-04-16T14:10:27.611Z,21.43
2023-04-16T14:12:56.158Z,21.36
2023-04-16T14:15:27.516Z,21.25
2023-04-16T14:17:56.382Z,21.20
2023-04-16T14:20:26.368Z,21.09
2023-04-16T14:22:55.122Z,20.92
2023-04-16T14:25:25.710Z,20.75
2023-04-16T14:27:55.171Z,20.56
2023-04-16T14:30:23.835Z,20.44
2023-04-16T14:32:52.418Z,20.37
2023-04-16T14:35:21.367Z,20.25
2023-04-16T14:37:51.984Z,20.14
2023-04-16T14:40:22.367Z,20.07
2023-04-16T14:42:51.259Z,19.97
2023-04-16T14:45:20.424Z,19.89
2023-04-16T14:47:50.029Z,19.80
2023-04-16T14:50:19.697Z,19.71
2023-04-16T14:52:48.199Z,19.63
2023-04-16T14:55:18.237Z,19.53
2023-04-16T14:57:46.857Z,19.43
2023-04-16T15:00:19.069Z,19.31
2023-04-16T15:02:48.394Z,19.22
2023-04-16T15:05:17.921Z,19.15
2023-04-16T15:07:47.738Z,19.08
2023-04-16T15:10:18.291Z,19.00
2023-04-16T15:12:47.101Z,18.92
2023-04-16T15:15:16.018Z,18.86
2023-04-16T15:17:45.335Z,18.82
2023-04-16T15:20:14.594Z,18.78
2023-04-16T15:22:43.023Z,18.77
2023-04-16T15:25:12.424Z,18.76
2023-04-16T15:27:43.792Z,18.72
2023-04-16T15:30:14.497Z,18.68
2023-04-16T15:32:44.657Z,18.66
2023-04-16T15:35:15.931Z,18.65
2023-04-16T15:37:44.882Z,18.64
2023-04-16T15:40:16.461Z,18.63
2023-04-16T15:42:47.692Z,18.61
2023-04-16T15:45:18.382Z,18.62
2023-04-16T15:47:51.739Z,18.61
2023-04-16T15:50:25.973Z,18.60
2023-04-16T15:52:56.435Z,18.58
2023-04-16T15:55:26.683Z,18.54
2023-04-16T15:57:57.254Z,18.50
2023-04-16T16:00:28.289Z,18.46
2023-04-16T16:02:57.246Z,18.41
2023-04-16T16:05:26.381Z,18.39
2023-04-16T16:07:56.490Z,18.32
2023-04-16T16:10:26.235Z,18.24
2023-04-16T16:12:57.610Z,18.18
2023-04-16T16:15:26.186Z,18.13
2023-04-16T16:17:57.771Z,18.10
2023-04-16T16:20:28.581Z,18.03
2023-04-16T16:23:01.091Z,17.98
2023-04-16T16:25:30.841Z,17.96
2023-04-16T16:28:02.572Z,17.93
2023-04-16T16:30:33.349Z,17.87
2023-04-16T16:33:02.602Z,17.85
2023-04-16T16:35:34.855Z,17.80
2023-04-16T16:38:05.021Z,17.75
2023-04-16T16:40:34.368Z,17.71
2023-04-16T16:43:04.166Z,17.66
2023-04-16T16:45:33.073Z,17.63
2023-04-16T16:48:04.068Z,17.62
2023-04-16T16:50:34.546Z,17.59
2023-04-16T16:53:03.668Z,17.58
2023-04-16T16:55:35.612Z,17.54
2023-04-16T16:58:07.269Z,17.53
2023-04-16T17:00:36.621Z,17.51
2023-04-16T17:03:05.642Z,17.48
2023-04-16T17:05:35.270Z,17.45
2023-04-16T17:08:04.667Z,17.42
2023-04-16T17:10:34.227Z,17.36
2023-04-16T17:13:04.941Z,17.28
2023-04-16T17:15:34.863Z,17.24
2023-04-16T17:18:05.193Z,17.18
2023-04-16T17:20:34.662Z,17.12
2023-04-16T17:23:04.436Z,17.05
2023-04-16T17:25:34.411Z,17.02
2023-04-16T17:28:06.116Z,16.98
2023-04-16T17:30:36.303Z,16.96
2023-04-16T17:33:06.121Z,16.92
2023-04-16T17:35:36.802Z,16.85
2023-04-16T17:38:07.703Z,16.77
2023-04-16T17:40:36.588Z,16.67
2023-04-16T17:43:06.897Z,16.56
2023-04-16T17:45:38.598Z,16.47
2023-04-16T17:48:09.629Z,16.40
2023-04-16T17:50:39.829Z,16.33
2023-04-16T17:53:12.510Z,16.28
2023-04-16T17:55:43.200Z,16.21
2023-04-16T17:58:14.662Z,16.12
2023-04-16T18:00:46.433Z,16.06
2023-04-16T18:03:21.417Z,16.00
2023-04-16T18:05:52.669Z,15.92
2023-04-16T18:08:27.636Z,15.86
2023-04-16T18:10:57.489Z,15.80
2023-04-16T18:13:28.641Z,15.73
2023-04-16T18:15:58.610Z,15.68
2023-04-16T18:18:28.436Z,15.62
2023-04-16T18:20:57.749Z,15.58
2023-04-16T18:23:27.767Z,15.51
2023-04-16T18:25:57.818Z,15.43
2023-04-16T18:28:29.769Z,15.35
2023-04-16T18:31:03.321Z,15.29
2023-04-16T18:36:04.885Z,15.19
2023-04-16T18:38:35.059Z,15.12
2023-04-16T18:41:04.335Z,15.07
2023-04-16T18:43:35.492Z,15.02
2023-04-16T18:46:05.767Z,14.98
2023-04-16T18:48:34.898Z,14.93
2023-04-16T18:51:08.259Z,14.88
2023-04-16T18:53:38.576Z,14.84
2023-04-16T18:56:08.603Z,14.80
2023-04-16T18:58:39.389Z,14.77
2023-04-16T19:01:11.534Z,14.74
2023-04-16T19:03:41.913Z,14.74
2023-04-16T19:06:12.852Z,14.72
2023-04-16T19:08:42.295Z,14.72
2023-04-16T19:11:11.795Z,14.73
2023-04-16T19:13:41.605Z,14.71
2023-04-16T19:16:12.850Z,14.72
2023-04-16T19:18:41.768Z,14.72
2023-04-16T19:21:11.016Z,14.69
2023-04-16T19:23:40.316Z,14.68
2023-04-16T19:26:09.674Z,14.67
2023-04-16T19:28:40.301Z,14.67
2023-04-16T19:31:11.744Z,14.66
2023-04-16T19:33:44.086Z,14.67
2023-04-16T19:36:19.867Z,14.65
2023-04-16T19:38:49.735Z,14.64
2023-04-16T19:41:20.103Z,14.63
2023-04-16T19:43:54.645Z,14.64
2023-04-16T19:46:27.347Z,14.62
2023-04-16T19:48:57.171Z,14.62
2023-04-16T19:51:28.926Z,14.61
2023-04-16T19:53:59.275Z,14.62
2023-04-16T19:56:28.910Z,14.63
2023-04-16T19:58:58.930Z,14.65
2023-04-16T20:01:32.164Z,14.66
2023-04-16T20:04:01.002Z,14.69
2023-04-16T20:06:30.594Z,14.71
2023-04-16T20:09:02.492Z,14.72
2023-04-16T20:11:34.933Z,14.73
2023-04-16T20:14:03.794Z,14.74
2023-04-16T20:16:34.256Z,14.75
2023-04-16T20:19:07.142Z,14.77
2023-04-16T20:21:39.102Z,14.78
2023-04-16T20:24:10.927Z,14.80
2023-04-16T20:26:40.084Z,14.80
2023-04-16T20:29:10.428Z,14.80
2023-04-16T20:31:43.208Z,14.80
2023-04-16T20:34:12.184Z,14.81
2023-04-16T20:36:40.594Z,14.81
2023-04-16T20:39:10.113Z,14.81
2023-04-16T20:41:44.104Z,14.80
2023-04-16T20:44:18.243Z,14.79
2023-04-16T20:46:51.025Z,14.78
2023-04-16T20:49:19.774Z,14.78
2023-04-16T20:51:48.250Z,14.78
2023-04-16T20:54:16.949Z,14.79
2023-04-16T20:56:45.965Z,14.78
2023-04-16T20:59:14.718Z,14.78
2023-04-16T21:01:43.436Z,14.77
2023-04-16T21:04:13.257Z,14.79
2023-04-16T21:06:42.978Z,14.80
2023-04-16T21:09:11.914Z,14.78
2023-04-16T21:11:40.584Z,14.78
2023-04-16T21:14:09.107Z,14.77
2023-04-16T21:16:37.524Z,14.76
2023-04-16T21:19:06.033Z,14.76
2023-04-16T21:21:36.640Z,14.76
2023-04-16T21:24:05.537Z,14.76
2023-04-16T21:26:33.899Z,14.74
2023-04-16T21:29:02.298Z,14.72
2023-04-16T21:31:30.764Z,14.71
2023-04-16T21:33:59.191Z,14.69
2023-04-16T21:36:27.980Z,14.66
2023-04-16T21:38:57.747Z,14.64
2023-04-16T21:41:26.545Z,14.63
2023-04-16T21:43:55.007Z,14.61
2023-04-16T21:46:23.425Z,14.59
2023-04-16T21:48:51.817Z,14.57
2023-04-16T21:51:20.185Z,14.54
2023-04-16T21:53:48.550Z,14.51
2023-04-16T21:56:18.267Z,14.49
2023-04-16T21:58:46.684Z,14.46
2023-04-16T22:01:15.087Z,14.44
2023-04-16T22:03:43.866Z,14.42
2023-04-16T22:06:13.276Z,14.41
2023-04-16T22:08:41.657Z,14.39
2023-04-16T22:11:09.965Z,14.37
2023-04-16T22:13:42.178Z,14.33
2023-04-16T22:16:11.846Z,14.31
2023-04-16T22:18:41.173Z,14.30
2023-04-16T22:21:09.669Z,14.27
2023-04-16T22:23:38.119Z,14.22
2023-04-16T22:26:07.030Z,14.18
2023-04-16T22:28:35.417Z,14.13
2023-04-16T22:31:05.389Z,14.09
2023-04-16T22:33:33.756Z,14.06
2023-04-16T22:36:02.273Z,14.02
2023-04-16T22:38:30.667Z,13.99
2023-04-16T22:40:59.051Z,13.96
2023-04-16T22:43:27.466Z,13.93
2023-04-16T22:46:06.704Z,13.89
2023-04-16T22:48:38.084Z,13.87
2023-04-16T22:51:08.445Z,13.84
2023-04-16T22:53:37.077Z,13.82
2023-04-16T22:56:06.486Z,13.79
2023-04-16T22:58:34.832Z,13.78
2023-04-16T23:01:04.998Z,13.76
2023-04-16T23:03:33.500Z,13.75
2023-04-16T23:06:03.540Z,13.75
2023-04-16T23:08:32.109Z,13.74
2023-04-16T23:11:00.521Z,13.75
2023-04-16T23:13:29.038Z,13.77
2023-04-16T23:15:57.431Z,13.79
2023-04-16T23:18:27.197Z,13.81
2023-04-16T23:20:55.794Z,13.81
2023-04-16T23:23:24.091Z,13.82
2023-04-16T23:25:54.447Z,13.80
2023-04-16T23:28:22.797Z,13.78
2023-04-16T23:30:53.713Z,13.75
2023-04-16T23:33:22.212Z,13.75
2023-04-16T23:35:51.946Z,13.74
2023-04-16T23:38:20.396Z,13.75
2023-04-16T23:40:48.792Z,13.76
2023-04-16T23:43:17.321Z,13.77
2023-04-16T23:45:45.708Z,13.77
2023-04-16T23:48:14.019Z,13.79
2023-04-16T23:50:42.306Z,13.83
2023-04-16T23:53:12.068Z,13.83
2023-04-16T23:55:40.655Z,13.85
2023-04-16T23:58:09.023Z,13.87
